Time;durP1;ratioP1;P1;durP2;ratioP2;P2;SDS_P1;SDS_P2;PMS_P1;PMS_P2;Temp;Humidity;BMP_temperature;BMP_pressure;BME280_temperature;BME280_humidity;BME280_pressure;Samples;Min_cycle;Max_cycle;Signal;HPM_P1;HPM_P2
2022/05/02 00:01:03;;;;;;;;;;;;;;;22.73;39.31;101892.06;7286290;19;152888;-57
2022/05/02 00:03:31;;;;;;;;;;;;;;;22.72;39.27;101896.88;7283995;19;153365;-58
2022/05/02 00:05:58;;;;;;;;;;;;;;;22.69;39.61;101890.97;7283533;19;151931;-58
2022/05/02 00:08:26;;;;;;;;;;;;;;;22.67;39.51;101885.63;7283332;19;152323;-58
2022/05/02 00:10:53;;;;;;;;;;;;;;;22.63;39.64;101885.41;7281496;19;153370;-56
2022/05/02 00:13:20;;;;;;;;;;;;;;;22.63;40.00;101884.56;7292885;19;152058;-58
2022/05/02 00:15:47;;;;;;;;;;;;;;;22.61;39.72;101886.84;7279660;19;154420;-58
2022/05/02 00:18:14;;;;;;;;;;;;;;;22.59;39.99;101884.31;7282570;19;151755;-58
2022/05/02 00:20:41;;;;;;;;;;;;;;;22.54;40.50;101873.09;7282073;19;153055;-56
2022/05/02 00:23:09;;;;;;;;;;;;;;;22.53;39.84;101876.25;7283340;19;153529;-57
2022/05/02 00:25:37;;;;;;;;;;;;;;;22.51;40.24;101872.88;7284799;19;151852;-58
2022/05/02 00:28:04;;;;;;;;;;;;;;;22.49;40.47;101875.13;7279449;19;152799;-59
2022/05/02 00:30:31;;;;;;;;;;;;;;;22.46;40.65;101879.41;7280678;19;153175;-58
2022/05/02 00:32:59;;;;;;;;;;;;;;;22.43;40.46;101882.81;7291319;19;152007;-57
2022/05/02 00:35:26;;;;;;;;;;;;;;;22.43;40.17;101873.53;7280777;19;155212;-58
2022/05/02 00:37:53;;;;;;;;;;;;;;;22.39;40.20;101878.94;7277636;19;152249;-57
2022/05/02 00:40:20;;;;;;;;;;;;;;;22.38;40.43;101871.63;7281281;19;153564;-58
2022/05/02 00:42:47;;;;;;;;;;;;;;;22.37;40.32;101867.13;7281089;19;153950;-58
2022/05/02 00:45:16;;;;;;;;;;;;;;;22.35;40.35;101871.38;7281115;19;151509;-59
2022/05/02 00:47:46;;;;;;;;;;;;;;;22.33;40.53;101868.84;7280791;19;152851;-58
2022/05/02 00:50:13;;;;;;;;;;;;;;;22.35;40.85;101866.56;7282118;19;154005;-59
2022/05/02 00:52:40;;;;;;;;;;;;;;;22.31;40.59;101865.47;7282656;19;151736;-57
2022/05/02 00:55:08;;;;;;;;;;;;;;;22.31;40.65;101868.31;7288638;19;153530;-57
2022/05/02 00:57:35;;;;;;;;;;;;;;;22.28;41.05;101863.28;7280050;19;151611;-58
2022/05/02 01:00:03;;;;;;;;;;;;;;;22.29;40.75;101866.94;7282347;19;151937;-57
2022/05/02 01:02:30;;;;;;;;;;;;;;;22.24;40.95;101867.81;7279707;19;154262;-58
2022/05/02 01:04:57;;;;;;;;;;;;;;;22.22;41.08;101863.63;7281637;19;152160;-57
2022/05/02 01:07:24;;;;;;;;;;;;;;;22.18;41.10;101863.38;7282936;19;153853;-58
2022/05/02 01:09:51;;;;;;;;;;;;;;;22.20;40.88;101865.91;7280979;19;154245;-57
2022/05/02 01:12:19;;;;;;;;;;;;;;;22.21;41.13;101859.16;7279220;19;151645;-57
2022/05/02 01:14:48;;;;;;;;;;;;;;;22.21;40.71;101865.63;7278195;19;153185;-57
2022/05/02 01:17:16;;;;;;;;;;;;;;;22.23;41.11;101868.97;7287207;19;153406;-57
2022/05/02 01:19:43;;;;;;;;;;;;;;;22.20;40.86;101863.94;7280389;19;153628;-58
2022/05/02 01:22:11;;;;;;;;;;;;;;;22.16;40.91;101868.47;7277555;19;152451;-57
2022/05/02 01:24:39;;;;;;;;;;;;;;;22.15;41.00;101861.16;7279602;19;152165;-58
2022/05/02 01:27:07;;;;;;;;;;;;;;;22.12;41.12;101871.03;7283417;19;152835;-57
2022/05/02 01:29:36;;;;;;;;;;;;;;;22.11;40.74;101871.34;7278264;19;154231;-56
2022/05/02 01:34:34;;;;;;;;;;;;;;;22.13;40.91;101874.69;7280411;19;153502;-59
2022/05/02 01:37:02;;;;;;;;;;;;;;;22.12;41.00;101864.59;7280919;19;154161;-58
2022/05/02 01:39:29;;;;;;;;;;;;;;;22.09;40.87;101862.34;7285751;19;151701;-57
2022/05/02 01:41:59;;;;;;;;;;;;;;;22.09;41.15;101870.78;7279767;19;153392;-57
2022/05/02 01:44:26;;;;;;;;;;;;;;;22.06;41.01;101865.75;7282004;19;151493;-58
2022/05/02 01:46:53;;;;;;;;;;;;;;;22.03;41.52;101861.56;7278379;19;152380;-58
2022/05/02 01:49:21;;;;;;;;;;;;;;;22.05;41.07;101861.25;7278532;19;153632;-58
2022/05/02 01:51:48;;;;;;;;;;;;;;;22.02;41.58;101861.88;7281140;19;151901;-58
2022/05/02 01:54:20;;;;;;;;;;;;;;;21.99;41.54;101862.44;7279397;19;152172;-58
2022/05/02 01:56:47;;;;;;;;;;;;;;;21.98;41.59;101861.63;7278128;19;153451;-57
2022/05/02 01:59:14;;;;;;;;;;;;;;;21.96;41.66;101866.69;7275445;19;151576;-58
2022/05/02 02:01:41;;;;;;;;;;;;;;;21.96;41.53;101863.88;7288430;19;152903;-57
2022/05/02 02:06:38;;;;;;;;;;;;;;;21.91;41.69;101861.09;7280558;19;152536;-57
2022/05/02 02:09:05;;;;;;;;;;;;;;;21.88;41.72;101866.47;7278048;19;153817;-56
2022/05/02 02:11:32;;;;;;;;;;;;;;;21.84;42.10;101857.78;7281870;19;151847;-58
2022/05/02 02:13:59;;;;;;;;;;;;;;;21.80;41.77;101862.31;7279143;19;153132;-57
2022/05/02 02:16:26;;;;;;;;;;;;;;;21.81;41.67;101860.31;7278356;19;153377;-58
2022/05/02 02:18:53;;;;;;;;;;;;;;;21.76;41.82;101851.97;7274129;19;151856;-58
2022/05/02 02:21:20;;;;;;;;;;;;;;;21.76;41.90;101858.41;7279293;19;153022;-58
2022/05/02 02:23:46;;;;;;;;;;;;;;;21.75;42.22;101853.94;7284795;19;153282;-57
2022/05/02 02:26:13;;;;;;;;;;;;;;;21.72;42.27;101854.50;7277946;19;152691;-56
2022/05/02 02:28:40;;;;;;;;;;;;;;;21.70;41.76;101854.81;7278523;19;153251;-58
2022/05/02 02:31:07;;;;;;;;;;;;;;;21.69;42.22;101855.09;7281117;19;151641;-58
2022/05/02 02:33:34;;;;;;;;;;;;;;;21.70;42.36;101856.78;7280571;19;153082;-56
2022/05/02 02:36:01;;;;;;;;;;;;;;;21.66;42.10;101853.72;7280216;19;153210;-57
2022/05/02 02:38:28;;;;;;;;;;;;;;;21.64;41.97;101846.69;7278229;19;151883;-57
2022/05/02 02:40:55;;;;;;;;;;;;;;;21.61;42.24;101850.94;7280274;19;153385;-57
2022/05/02 02:43:22;;;;;;;;;;;;;;;21.61;42.47;101850.94;7285541;19;153739;-58
2022/05/02 02:45:49;;;;;;;;;;;;;;;21.60;42.26;101849.25;7278457;19;153220;-57
2022/05/02 02:48:16;;;;;;;;;;;;;;;21.60;42.34;101849.25;7277302;19;152568;-58
2022/05/02 02:50:43;;;;;;;;;;;;;;;21.59;42.49;101849.56;7281724;19;151826;-59
2022/05/02 02:53:10;;;;;;;;;;;;;;;21.55;42.78;101842.84;7276234;19;152965;-57
2022/05/02 02:55:37;;;;;;;;;;;;;;;21.52;42.77;101844.28;7276902;19;153371;-58
2022/05/02 02:58:04;;;;;;;;;;;;;;;21.51;43.01;101839.78;7277723;19;152132;-58
2022/05/02 03:00:31;;;;;;;;;;;;;;;21.49;42.86;101849.63;7284699;19;152719;-57
2022/05/02 03:02:58;;;;;;;;;;;;;;;21.47;43.00;101833.06;7282741;19;153852;-57
2022/05/02 03:07:56;;;;;;;;;;;;;;;21.45;42.70;101831.66;7284221;19;153808;-57
2022/05/02 03:10:23;;;;;;;;;;;;;;;21.45;42.66;101835.31;7286284;19;151915;-58
2022/05/02 03:12:50;;;;;;;;;;;;;;;21.41;43.02;101825.78;7283270;19;152566;-58
2022/05/02 03:15:16;;;;;;;;;;;;;;;21.42;42.77;101829.44;7281498;19;153810;-57
2022/05/02 03:17:43;;;;;;;;;;;;;;;21.41;43.22;101836.19;7283105;19;151611;-57
2022/05/02 03:20:11;;;;;;;;;;;;;;;21.40;42.99;101845.75;7282466;19;153206;-58
2022/05/02 03:22:38;;;;;;;;;;;;;;;21.37;42.91;101833.13;7286566;19;153536;-57
2022/05/02 03:25:05;;;;;;;;;;;;;;;21.34;43.02;101828.09;7284026;19;151793;-57
2022/05/02 03:27:32;;;;;;;;;;;;;;;21.34;43.36;101832.88;7291702;19;153642;-57
2022/05/02 03:29:59;;;;;;;;;;;;;;;21.34;43.13;101833.72;7283162;19;151947;-57
2022/05/02 03:32:26;;;;;;;;;;;;;;;21.34;43.53;101838.50;7283798;19;152785;-57
2022/05/02 03:34:53;;;;;;;;;;;;;;;21.32;43.32;101835.97;7283470;19;152867;-57
2022/05/02 03:37:20;;;;;;;;;;;;;;;21.29;43.70;101834.59;7283668;19;151841;-58
2022/05/02 03:39:47;;;;;;;;;;;;;;;21.32;43.53;101837.94;7281295;19;153598;-58
2022/05/02 03:42:14;;;;;;;;;;;;;;;21.28;43.25;101840.50;7284202;19;153656;-58
2022/05/02 03:44:41;;;;;;;;;;;;;;;21.26;43.72;101835.16;7284772;19;151790;-57
2022/05/02 03:47:07;;;;;;;;;;;;;;;21.27;43.34;101839.66;7284295;19;153575;-57
2022/05/02 03:49:34;;;;;;;;;;;;;;;21.26;43.69;101837.13;7290656;19;152372;-57
2022/05/02 03:52:01;;;;;;;;;;;;;;;21.25;43.88;101835.50;7282408;19;151803;-56
2022/05/02 03:54:28;;;;;;;;;;;;;;;21.23;43.65;101835.75;7283046;19;153977;-58
2022/05/02 03:56:55;;;;;;;;;;;;;;;21.23;43.85;101829.31;7284513;19;151909;-57
2022/05/02 03:59:22;;;;;;;;;;;;;;;21.23;43.50;101834.91;7280982;19;152040;-58
2022/05/02 04:01:49;;;;;;;;;;;;;;;21.23;43.76;101829.31;7281461;19;153373;-57
2022/05/02 04:04:16;;;;;;;;;;;;;;;21.21;43.99;101834.41;7284273;19;152896;-57
2022/05/02 04:06:43;;;;;;;;;;;;;;;21.21;43.89;101834.41;7281046;19;151850;-57
2022/05/02 04:09:10;;;;;;;;;;;;;;;21.19;43.93;101833.84;7284003;19;153433;-56
2022/05/02 04:11:37;;;;;;;;;;;;;;;21.17;44.23;101833.25;7288683;19;151995;-56
2022/05/02 04:14:04;;;;;;;;;;;;;;;21.17;44.18;101836.06;7282801;19;153729;-57
2022/05/02 04:16:31;;;;;;;;;;;;;;;21.23;44.41;101832.97;7283441;19;151859;-57
2022/05/02 04:18:58;;;;;;;;;;;;;;;21.25;43.91;101835.50;7280051;19;153609;-57
2022/05/02 04:21:25;;;;;;;;;;;;;;;21.24;44.24;101831.84;7282054;19;153994;-57
2022/05/02 04:23:58;;;;;;;;;;;;;;;21.23;44.03;101830.16;7280956;19;151996;-56
2022/05/02 04:26:25;;;;;;;;;;;;;;;21.23;43.99;101821.72;7283837;19;153523;-57
2022/05/02 04:28:52;;;;;;;;;;;;;;;21.23;44.08;101820.88;7280769;19;153415;-57
2022/05/02 04:31:19;;;;;;;;;;;;;;;21.22;44.18;101828.47;7284101;19;151799;-57
2022/05/02 04:33:46;;;;;;;;;;;;;;;21.19;43.86;101826.25;7287432;19;152756;-58
2022/05/02 04:36:13;;;;;;;;;;;;;;;21.22;44.17;101822.84;7284659;19;151759;-57
2022/05/02 04:38:40;;;;;;;;;;;;;;;21.21;43.96;101828.78;7280280;19;152647;-58
2022/05/02 04:41:07;;;;;;;;;;;;;;;21.23;43.76;101832.97;7282146;19;154238;-56
2022/05/02 04:43:34;;;;;;;;;;;;;;;21.18;43.78;101823.72;7283495;19;151814;-56
2022/05/02 04:46:01;;;;;;;;;;;;;;;21.16;44.19;101826.00;7282098;19;153235;-57
2022/05/02 04:48:28;;;;;;;;;;;;;;;21.11;44.21;101824.03;7283188;19;154299;-56
2022/05/02 04:50:55;;;;;;;;;;;;;;;21.12;44.21;101824.88;7283597;19;152173;-57
2022/05/02 04:53:22;;;;;;;;;;;;;;;21.09;44.43;101828.25;7287481;19;152038;-57
2022/05/02 04:55:49;;;;;;;;;;;;;;;21.07;44.32;101822.09;7282412;19;151905;-57
2022/05/02 04:58:16;;;;;;;;;;;;;;;21.07;44.17;101827.72;7280935;19;152648;-57
2022/05/02 05:00:43;;;;;;;;;;;;;;;21.05;44.28;101832.75;7277199;19;153117;-57
2022/05/02 05:03:10;;;;;;;;;;;;;;;21.04;44.01;101836.69;7281869;19;151885;-57
2022/05/02 05:05:37;;;;;;;;;;;;;;;21.02;44.49;101836.16;7283544;19;152723;-57
2022/05/02 05:08:04;;;;;;;;;;;;;;;20.99;44.13;101836.72;7280081;19;155113;-58
2022/05/02 05:10:35;;;;;;;;;;;;;;;20.98;44.43;101824.66;7280744;19;151886;-57
2022/05/02 05:13:05;;;;;;;;;;;;;;;20.97;44.08;101828.59;7280286;19;153673;-57
2022/05/02 05:18:03;;;;;;;;;;;;;;;20.96;44.50;101838.16;7279847;19;153545;-55
2022/05/02 05:20:38;;;;;;;;;;;;;;;20.94;44.33;101833.97;7276278;19;154210;-57
2022/05/02 05:23:08;;;;;;;;;;;;;;;20.93;44.72;101838.75;7280753;19;151795;-56
2022/05/02 05:25:38;;;;;;;;;;;;;;;20.93;44.71;101827.50;7282980;19;153503;-57
2022/05/02 05:28:08;;;;;;;;;;;;;;;20.98;44.42;101838.72;7280476;19;153446;-56
2022/05/02 05:30:38;;;;;;;;;;;;;;;21.02;44.63;101838.97;7280735;19;151700;-56
2022/05/02 05:33:10;;;;;;;;;;;;;;;21.07;44.44;101841.75;7280341;19;154476;-57
2022/05/02 05:35:40;;;;;;;;;;;;;;;21.11;44.78;101832.47;7281835;19;153161;-56
2022/05/02 05:38:10;;;;;;;;;;;;;;;21.16;44.56;101826.84;7286230;19;151780;-57
2022/05/02 05:40:38;;;;;;;;;;;;;;;21.23;45.01;101837.72;7275777;19;153953;-58
2022/05/02 05:43:08;;;;;;;;;;;;;;;21.30;44.65;101839.06;7281713;19;151659;-57
2022/05/02 05:45:38;;;;;;;;;;;;;;;21.38;45.17;101829.19;7280842;19;152987;-57
2022/05/02 05:48:10;;;;;;;;;;;;;;;21.46;44.77;101841.78;7279531;19;154066;-58
2022/05/02 05:50:41;;;;;;;;;;;;;;;21.53;44.32;101842.31;7280915;19;152084;-57
2022/05/02 05:53:15;;;;;;;;;;;;;;;21.59;44.37;101841.94;7282200;19;153976;-57
2022/05/02 05:55:45;;;;;;;;;;;;;;;21.66;44.17;101844.44;7281224;19;153237;-57
2022/05/02 05:58:12;;;;;;;;;;;;;;;21.74;44.54;101843.81;7277829;19;151799;-56
2022/05/02 06:00:42;;;;;;;;;;;;;;;21.81;44.40;101840.63;7283030;19;152413;-57
2022/05/02 06:03:13;;;;;;;;;;;;;;;21.88;44.22;101843.97;7279622;19;151801;-57
2022/05/02 06:05:41;;;;;;;;;;;;;;;21.94;43.85;101843.63;7281316;19;153162;-57
2022/05/02 06:08:09;;;;;;;;;;;;;;;22.02;43.79;101853.44;7278342;19;154201;-57
2022/05/02 06:10:36;;;;;;;;;;;;;;;22.07;44.12;101847.75;7278488;19;151677;-58
2022/05/02 06:13:04;;;;;;;;;;;;;;;22.12;43.95;101847.69;7280917;19;153439;-56
2022/05/02 06:20:38;;;;;;;;;;;;;;;22.29;43.37;101855.66;7278090;19;154591;-58
2022/05/02 06:23:09;;;;;;;;;;;;;;;22.32;43.07;101849.44;7284661;19;154065;-57
2022/05/02 06:25:37;;;;;;;;;;;;;;;22.36;43.50;101851.34;7280874;19;153363;-57
2022/05/02 06:28:05;;;;;;;;;;;;;;;22.39;43.28;101853.59;7278372;19;153388;-57
2022/05/02 06:30:34;;;;;;;;;;;;;;;22.42;43.40;101852.13;7280132;19;151720;-57
2022/05/02 06:33:05;;;;;;;;;;;;;;;22.45;43.27;101860.81;7278540;19;152844;-57
2022/05/02 06:35:36;;;;;;;;;;;;;;;22.48;43.41;101865.88;7281222;19;156448;-56
2022/05/02 06:38:12;;;;;;;;;;;;;;;22.50;42.86;101857.94;7284879;19;151753;-58
2022/05/02 06:40:42;;;;;;;;;;;;;;;22.52;43.26;101855.69;7284172;19;152692;-57
2022/05/02 06:43:12;;;;;;;;;;;;;;;22.53;43.25;101864.97;7283959;19;152521;-57
2022/05/02 06:45:42;;;;;;;;;;;;;;;22.56;42.83;101868.03;7293420;19;152259;-57
2022/05/02 06:48:12;;;;;;;;;;;;;;;22.57;42.90;101866.91;7283516;19;153576;-57
2022/05/02 06:50:40;;;;;;;;;;;;;;;22.59;42.78;101872.22;7286509;19;151749;-57
2022/05/02 06:53:10;;;;;;;;;;;;;;;22.61;42.75;101869.94;7285533;19;152296;-57
2022/05/02 06:55:40;;;;;;;;;;;;;;;22.59;43.01;101864.59;7286126;19;153337;-57
2022/05/02 06:58:13;;;;;;;;;;;;;;;22.61;42.93;101869.94;7285903;19;151646;-57
2022/05/02 07:00:47;;;;;;;;;;;;;;;22.62;43.04;101866.81;7285383;19;152747;-56
2022/05/02 07:03:14;;;;;;;;;;;;;;;22.62;42.53;101869.63;7282846;19;153811;-57
2022/05/02 07:05:43;;;;;;;;;;;;;;;22.62;42.66;101875.25;7294969;19;151894;-57
2022/05/02 07:08:10;;;;;;;;;;;;;;;22.62;42.62;101880.09;7285183;19;154170;-58
2022/05/02 07:10:42;;;;;;;;;;;;;;;22.61;42.50;101875.56;7286082;19;151976;-58
2022/05/02 07:13:13;;;;;;;;;;;;;;;22.61;41.97;101873.59;7283737;19;154055;-58
2022/05/02 07:15:41;;;;;;;;;;;;;;;22.60;42.35;101871.91;7283371;19;153889;-58
2022/05/02 07:18:17;;;;;;;;;;;;;;;22.60;42.30;101876.72;7283192;19;151766;-58
2022/05/02 07:20:47;;;;;;;;;;;;;;;22.59;42.23;101875.88;7282510;19;152190;-58
2022/05/02 07:23:18;;;;;;;;;;;;;;;22.59;42.63;101869.41;7282706;19;153488;-57
2022/05/02 07:25:49;;;;;;;;;;;;;;;22.56;42.08;101868.03;7283162;19;151692;-59
2022/05/02 07:28:17;;;;;;;;;;;;;;;22.51;42.07;101870.91;7287951;19;153572;-57
2022/05/02 07:30:45;;;;;;;;;;;;;;;22.45;41.76;101868.44;7281884;19;152271;-58
2022/05/02 07:33:12;;;;;;;;;;;;;;;22.42;41.33;101866.22;7281578;19;152349;-57
2022/05/02 07:35:40;;;;;;;;;;;;;;;22.40;41.27;101871.31;7281345;19;153353;-59
2022/05/02 07:38:08;;;;;;;;;;;;;;;22.37;41.53;101869.09;7281850;19;151775;-59
2022/05/02 07:40:35;;;;;;;;;;;;;;;22.34;41.16;101869.69;7282104;19;153040;-57
2022/05/02 07:43:02;;;;;;;;;;;;;;;22.30;40.93;101879.88;7281920;19;153364;-59
2022/05/02 07:45:30;;;;;;;;;;;;;;;22.28;41.57;101882.97;7282313;19;151580;-57
2022/05/02 07:47:58;;;;;;;;;;;;;;;22.30;41.19;101886.34;7283249;19;154015;-58
2022/05/02 07:50:25;;;;;;;;;;;;;;;22.26;41.19;101876.78;7289071;19;153351;-57
2022/05/02 07:52:52;;;;;;;;;;;;;;;22.25;41.50;101879.94;7281988;19;152916;-57
2022/05/02 07:55:21;;;;;;;;;;;;;;;22.24;41.21;101875.44;7254284;19;155186;-57
2022/05/02 07:57:48;;;;;;;;;;;;;;;22.20;41.41;101879.97;7280420;19;152075;-57
2022/05/02 08:00:16;;;;;;;;;;;;;;;22.18;41.27;101877.44;7281972;19;153444;-57
2022/05/02 08:02:43;;;;;;;;;;;;;;;22.16;41.42;101879.75;7279207;19;154470;-57
2022/05/02 08:05:10;;;;;;;;;;;;;;;22.15;41.56;101886.50;7281446;19;152149;-57
2022/05/02 08:07:41;;;;;;;;;;;;;;;22.13;41.85;101880.31;7282461;19;154238;-58
2022/05/02 08:10:10;;;;;;;;;;;;;;;22.12;41.63;101889.91;7279985;19;153294;-57
2022/05/02 08:12:43;;;;;;;;;;;;;;;22.10;41.40;101887.38;7289357;19;151864;-58
2022/05/02 08:15:13;;;;;;;;;;;;;;;22.09;41.73;101884.88;7277541;19;155706;-57
2022/05/02 08:17:43;;;;;;;;;;;;;;;22.07;41.45;101893.63;7283454;19;151846;-58
2022/05/02 08:20:18;;;;;;;;;;;;;;;22.05;41.76;101884.63;7282290;19;152929;-58
2022/05/02 08:27:55;;;;;;;;;;;;;;;22.00;41.82;101893.09;7279925;19;153128;-57
2022/05/02 08:30:22;;;;;;;;;;;;;;;21.97;41.59;101892.88;7280626;19;154848;-59
2022/05/02 08:32:52;;;;;;;;;;;;;;;21.92;41.70;101895.69;7284161;19;152028;-58
2022/05/02 08:35:29;;;;;;;;;;;;;;;21.87;41.49;101896.56;7287368;19;155257;-60
2022/05/02 08:38:07;;;;;;;;;;;;;;;21.85;41.63;101895.22;7282938;19;152045;-58
2022/05/02 08:40:37;;;;;;;;;;;;;;;21.84;41.81;101904.78;7280817;19;152828;-58
2022/05/02 08:43:07;;;;;;;;;;;;;;;21.89;41.29;101893.47;7277263;19;153101;-58
2022/05/02 08:45:51;;;;;;;;;;;;;;;21.75;40.65;101904.56;7280853;19;151965;-60
2022/05/02 08:48:21;;;;;;;;;;;;;;;21.73;41.33;101899.22;7280738;19;153726;-58
2022/05/02 08:50:51;;;;;;;;;;;;;;;21.71;41.25;101887.41;7280726;19;154815;-59
2022/05/02 08:53:32;;;;;;;;;;;;;;;21.67;41.20;101888.28;7279262;19;151955;-58
2022/05/02 08:56:02;;;;;;;;;;;;;;;21.65;40.81;101899.84;7277428;19;155473;-58
2022/05/02 08:58:32;;;;;;;;;;;;;;;21.64;40.90;101889.72;7274356;19;151983;-59
2022/05/02 09:01:02;;;;;;;;;;;;;;;21.63;40.64;101888.03;7267143;19;153244;-58
2022/05/02 09:03:32;;;;;;;;;;;;;;;21.63;40.69;101895.63;7270994;19;153996;-60
2022/05/02 09:06:03;;;;;;;;;;;;;;;21.62;40.61;101891.97;7261588;19;153516;-59
2022/05/02 09:08:33;;;;;;;;;;;;;;;21.62;40.60;101891.97;7262604;19;152687;-58
2022/05/02 09:11:03;;;;;;;;;;;;;;;21.61;40.50;101892.28;7260906;19;156194;-60
2022/05/02 09:13:31;;;;;;;;;;;;;;;21.59;40.87;101889.75;7278627;19;152640;-59
2022/05/02 09:16:09;;;;;;;;;;;;;;;21.65;40.75;101894.22;7277030;19;152802;-60
2022/05/02 09:18:42;;;;;;;;;;;;;;;21.65;40.49;101894.22;7282764;19;152216;-58
2022/05/02 09:21:12;;;;;;;;;;;;;;;21.61;40.36;101890.31;7263445;19;152241;-58
2022/05/02 09:23:42;;;;;;;;;;;;;;;21.55;40.52;101894.31;7262507;19;153598;-59
2022/05/02 09:26:09;;;;;;;;;;;;;;;21.51;40.56;101896.00;7252814;19;152407;-58
2022/05/02 09:28:39;;;;;;;;;;;;;;;21.52;40.37;101896.88;7261942;19;152982;-58
2022/05/02 09:31:10;;;;;;;;;;;;;;;21.49;40.58;101889.84;7254235;19;154027;-59
2022/05/02 09:33:40;;;;;;;;;;;;;;;21.59;40.62;101895.38;7278929;19;151846;-59
2022/05/02 09:36:10;;;;;;;;;;;;;;;21.65;40.52;101896.19;7279136;19;153501;-60
2022/05/02 09:38:40;;;;;;;;;;;;;;;21.56;40.45;101884.75;7280508;19;153301;-59
2022/05/02 09:41:15;;;;;;;;;;;;;;;21.55;40.63;101882.19;7288673;19;151706;-58
2022/05/02 09:51:31;;;;;;;;;;;;;;;21.58;42.40;101890.88;7276716;19;153951;-58
2022/05/02 09:54:01;;;;;;;;;;;;;;;21.57;43.38;101888.41;7276210;19;152174;-57
2022/05/02 09:59:07;;;;;;;;;;;;;;;21.48;44.31;101891.00;7279622;19;153417;-55
2022/05/02 10:01:34;;;;;;;;;;;;;;;21.47;44.57;101892.13;7278642;19;151906;-58
2022/05/02 10:04:02;;;;;;;;;;;;;;;21.43;44.35;101905.06;7285961;19;154068;-56
2022/05/02 10:06:32;;;;;;;;;;;;;;;21.40;44.56;101902.81;7278552;19;151702;-56
2022/05/02 10:09:02;;;;;;;;;;;;;;;21.39;44.22;101908.75;7276661;19;153346;-57
2022/05/02 10:11:30;;;;;;;;;;;;;;;21.36;43.89;101898.91;7280399;19;153511;-58
2022/05/02 10:14:00;;;;;;;;;;;;;;;21.34;43.44;101903.16;7276255;19;151776;-59
2022/05/02 10:16:30;;;;;;;;;;;;;;;21.30;43.41;101900.09;7280158;19;152942;-56
2022/05/02 10:19:00;;;;;;;;;;;;;;;21.28;43.15;101899.53;7278182;19;154028;-58
2022/05/02 10:21:30;;;;;;;;;;;;;;;21.25;42.46;101898.16;7276732;19;151525;-56
2022/05/02 10:24:00;;;;;;;;;;;;;;;21.23;42.16;101889.16;7276886;19;153338;-59
2022/05/02 10:26:31;;;;;;;;;;;;;;;21.22;42.15;101892.25;7285207;19;153457;-57
2022/05/02 10:29:01;;;;;;;;;;;;;;;21.19;42.20;101901.28;7279043;19;153274;-57
2022/05/02 10:31:33;;;;;;;;;;;;;;;21.18;42.27;101899.59;7277801;19;154114;-59
2022/05/02 10:34:02;;;;;;;;;;;;;;;21.16;42.03;101899.06;7278982;19;152101;-59
2022/05/02 10:36:36;;;;;;;;;;;;;;;21.14;41.82;101899.34;7277542;19;153394;-60
2022/05/02 10:39:14;;;;;;;;;;;;;;;21.12;41.88;101893.13;7276087;19;153363;-56
2022/05/02 10:41:42;;;;;;;;;;;;;;;21.11;41.92;101897.09;7276996;19;152804;-59
2022/05/02 10:44:09;;;;;;;;;;;;;;;21.12;41.83;101897.94;7276728;19;153455;-57
2022/05/02 10:46:38;;;;;;;;;;;;;;;21.10;41.38;101897.38;7275643;19;153342;-57
2022/05/02 10:49:12;;;;;;;;;;;;;;;21.08;41.47;101896.81;7284139;19;151987;-58
2022/05/02 10:51:42;;;;;;;;;;;;;;;21.07;41.47;101896.00;7277304;19;154332;-58
2022/05/02 10:54:16;;;;;;;;;;;;;;;21.09;41.63;101899.34;7278273;19;151651;-57
2022/05/02 10:56:44;;;;;;;;;;;;;;;21.05;41.50;101897.38;7276566;19;153568;-58
2022/05/02 10:59:13;;;;;;;;;;;;;;;21.08;41.70;101896.81;7277162;19;153954;-58
2022/05/02 11:01:41;;;;;;;;;;;;;;;21.03;41.80;101896.84;7276967;19;152094;-58
2022/05/02 11:04:08;;;;;;;;;;;;;;;21.00;41.76;101888.97;7276180;19;153342;-57
2022/05/02 11:06:38;;;;;;;;;;;;;;;20.99;41.74;101892.91;7277170;19;153956;-59
2022/05/02 11:09:09;;;;;;;;;;;;;;;20.96;41.88;101896.31;7283064;19;151805;-56
2022/05/02 11:11:38;;;;;;;;;;;;;;;20.97;41.84;101889.56;7276474;19;154071;-57
2022/05/02 11:14:13;;;;;;;;;;;;;;;20.95;41.41;101892.66;7276479;19;152425;-59
2022/05/02 11:16:42;;;;;;;;;;;;;;;20.95;41.41;101891.81;7278188;19;153280;-57
2022/05/02 11:21:50;;;;;;;;;;;;;;;20.92;41.62;101884.81;7283131;19;152018;-57
2022/05/02 11:24:24;;;;;;;;;;;;;;;20.91;41.71;101885.09;7283522;19;153593;-59
2022/05/02 11:26:54;;;;;;;;;;;;;;;20.89;41.70;101888.22;7281224;19;153232;-57
2022/05/02 11:29:24;;;;;;;;;;;;;;;20.90;41.30;101894.63;7283237;19;152194;-56
2022/05/02 11:31:54;;;;;;;;;;;;;;;20.90;41.45;101884.25;7291549;19;153238;-56
2022/05/02 11:34:23;;;;;;;;;;;;;;;20.88;41.34;101886.53;7282004;19;151941;-57
2022/05/02 11:36:52;;;;;;;;;;;;;;;20.86;41.16;101885.97;7283767;19;152818;-55
2022/05/02 11:39:24;;;;;;;;;;;;;;;20.84;41.14;101885.44;7280282;19;154099;-56
2022/05/02 11:41:57;;;;;;;;;;;;;;;20.82;41.42;101888.50;7283045;19;151857;-58
2022/05/02 11:44:31;;;;;;;;;;;;;;;20.82;41.11;101884.84;7283084;19;153262;-59
2022/05/02 11:46:59;;;;;;;;;;;;;;;20.80;41.43;101884.31;7277861;19;154392;-56
2022/05/02 11:49:30;;;;;;;;;;;;;;;20.79;41.27;101883.47;7281707;19;152168;-57
2022/05/02 11:52:00;;;;;;;;;;;;;;;20.78;41.21;101887.41;7282395;19;153822;-59
2022/05/02 11:54:28;;;;;;;;;;;;;;;20.77;41.11;101888.53;7289146;19;153329;-59
2022/05/02 11:56:58;;;;;;;;;;;;;;;20.76;41.07;101884.03;7281536;19;152788;-59
2022/05/02 11:59:33;;;;;;;;;;;;;;;20.75;41.01;101882.38;7280258;19;153451;-57
2022/05/02 12:02:03;;;;;;;;;;;;;;;20.73;41.17;101884.63;7279189;19;151980;-58
2022/05/02 12:04:32;;;;;;;;;;;;;;;20.72;41.25;101888.53;7281387;19;153096;-59
2022/05/02 12:06:59;;;;;;;;;;;;;;;20.70;41.53;101881.53;7282566;19;153340;-56
2022/05/02 12:09:29;;;;;;;;;;;;;;;20.69;41.10;101883.50;7281652;19;151999;-56
2022/05/02 12:11:58;;;;;;;;;;;;;;;20.70;41.34;101879.59;7280115;19;153468;-58
2022/05/02 12:14:25;;;;;;;;;;;;;;;20.69;41.47;101883.50;7281187;19;154023;-58
2022/05/02 12:16:55;;;;;;;;;;;;;;;20.68;41.39;101875.38;7288420;19;152231;-59
2022/05/02 12:19:30;;;;;;;;;;;;;;;20.68;41.12;101873.41;7281145;19;153465;-59
2022/05/02 12:22:00;;;;;;;;;;;;;;;20.67;41.51;101870.91;7279575;19;152127;-58
2022/05/02 12:24:28;;;;;;;;;;;;;;;20.67;41.17;101877.31;7283918;19;153091;-56
2022/05/02 12:26:56;;;;;;;;;;;;;;;20.70;41.29;101873.97;7278919;19;154180;-56
2022/05/02 12:29:26;;;;;;;;;;;;;;;20.68;41.25;101872.56;7283039;19;152123;-57
2022/05/02 12:31:55;;;;;;;;;;;;;;;20.66;41.45;101866.41;7278615;19;153988;-56
2022/05/02 12:34:24;;;;;;;;;;;;;;;20.66;40.98;101858.81;7280973;19;154027;-55
2022/05/02 12:36:52;;;;;;;;;;;;;;;20.68;41.06;101872.56;7282734;19;151821;-56
2022/05/02 12:39:22;;;;;;;;;;;;;;;20.67;41.36;101866.09;7285703;19;152760;-58
2022/05/02 12:41:53;;;;;;;;;;;;;;;20.69;41.18;101860.19;7282463;19;151655;-56
2022/05/02 12:44:25;;;;;;;;;;;;;;;20.71;41.31;101867.22;7278847;19;153452;-58
2022/05/02 12:46:52;;;;;;;;;;;;;;;20.72;41.23;101868.88;7279419;19;154291;-58
2022/05/02 12:49:25;;;;;;;;;;;;;;;20.78;40.99;101869.72;7279426;19;152110;-59
2022/05/02 12:51:52;;;;;;;;;;;;;;;20.75;40.80;101861.88;7283254;19;152696;-57
2022/05/02 12:54:21;;;;;;;;;;;;;;;20.75;40.80;101857.09;7280042;19;153270;-57
2022/05/02 13:00:30;;;;;;;;;;;;;;;20.73;41.08;101861.31;7280367;19;152059;-57
2022/05/02 13:02:06;;;;;;;;;;;;;;;20.72;41.26;101856.81;7284930;19;154296;-58
2022/05/02 13:04:41;;;;;;;;;;;;;;;20.71;40.88;101853.19;7282090;19;152920;-59
2022/05/02 13:07:09;;;;;;;;;;;;;;;20.70;40.94;101850.66;7278906;19;153532;-57
2022/05/02 13:09:37;;;;;;;;;;;;;;;20.72;41.18;101842.75;7281356;19;151787;-56
2022/05/02 13:12:07;;;;;;;;;;;;;;;20.73;41.22;101855.69;7280734;19;152478;-56